createdAt,value
2022-11-24T00:01:13.323Z,8.10
2022-11-24T00:03:40.249Z,8.10
2022-11-24T00:06:13.288Z,8.10
2022-11-24T00:08:41.822Z,8.10
2022-11-24T00:11:18.047Z,8.10
2022-11-24T00:13:45.303Z,8.10
2022-11-24T00:16:14.920Z,8.00
2022-11-24T00:18:43.053Z,8.00
2022-11-24T00:21:11.393Z,8.00
2022-11-24T00:23:38.690Z,8.00
2022-11-24T00:26:08.317Z,7.90
2022-11-24T00:28:36.267Z,7.90
2022-11-24T00:31:04.390Z,7.90
2022-11-24T00:33:31.317Z,7.90
2022-11-24T00:35:59.226Z,7.80
2022-11-24T00:38:27.061Z,7.80
2022-11-24T00:40:53.937Z,7.80
2022-11-24T00:43:20.937Z,7.80
2022-11-24T00:45:47.867Z,7.80
2022-11-24T00:48:14.858Z,7.80
2022-11-24T00:50:41.891Z,7.80
2022-11-24T00:53:09.036Z,7.80
2022-11-24T00:55:36.234Z,7.80
2022-11-24T00:58:03.296Z,7.70
2022-11-24T01:00:30.110Z,7.70
2022-11-24T01:02:57.048Z,7.70
2022-11-24T01:05:24.012Z,7.80
2022-11-24T01:07:50.945Z,7.80
2022-11-24T01:10:17.919Z,7.80
2022-11-24T01:12:44.752Z,7.80
2022-11-24T01:15:11.704Z,7.70
2022-11-24T01:17:38.533Z,7.80
2022-11-24T01:20:05.897Z,7.70
2022-11-24T01:22:33.045Z,7.70
2022-11-24T01:24:59.931Z,7.60
2022-11-24T01:27:27.631Z,7.60
2022-11-24T01:29:54.517Z,7.60
2022-11-24T01:32:21.318Z,7.60
2022-11-24T01:34:48.242Z,7.60
2022-11-24T01:37:15.490Z,7.60
2022-11-24T01:39:42.378Z,7.50
2022-11-24T01:42:09.278Z,7.50
2022-11-24T01:44:36.452Z,7.50
2022-11-24T01:47:33.113Z,7.50
2022-11-24T01:50:02.710Z,7.50
2022-11-24T01:52:35.517Z,7.50
2022-11-24T01:55:20.405Z,7.50
2022-11-24T01:57:56.516Z,7.50
2022-11-24T02:00:23.511Z,7.60
2022-11-24T02:02:50.993Z,7.60
2022-11-24T02:05:26.314Z,7.60
2022-11-24T02:07:55.848Z,7.70
2022-11-24T02:10:23.732Z,7.70
2022-11-24T02:12:53.526Z,7.70
2022-11-24T02:15:21.087Z,7.80
2022-11-24T02:17:47.948Z,7.80
2022-11-24T02:20:16.424Z,7.80
2022-11-24T02:23:02.108Z,7.80
2022-11-24T02:25:56.678Z,7.90
2022-11-24T02:28:27.079Z,7.90
2022-11-24T02:30:54.262Z,7.90
2022-11-24T02:33:22.165Z,7.90
2022-11-24T02:35:49.023Z,7.90
2022-11-24T02:38:15.873Z,7.90
2022-11-24T02:40:47.081Z,7.90
2022-11-24T02:43:17.922Z,7.90
2022-11-24T02:45:44.896Z,7.80
2022-11-24T02:48:13.320Z,7.80
2022-11-24T02:50:40.221Z,7.80
2022-11-24T02:53:09.885Z,7.80
2022-11-24T02:55:36.909Z,7.80
2022-11-24T02:58:03.759Z,7.80
2022-11-24T03:00:30.801Z,7.70
2022-11-24T03:02:57.982Z,7.80
2022-11-24T03:05:24.911Z,7.70
2022-11-24T03:07:51.769Z,7.70
2022-11-24T03:10:18.794Z,7.70
2022-11-24T03:12:45.655Z,7.80
2022-11-24T03:15:12.537Z,7.80
2022-11-24T03:17:39.578Z,7.80
2022-11-24T03:20:07.132Z,7.80
2022-11-24T03:22:34.054Z,7.80
2022-11-24T03:25:01.131Z,7.80
2022-11-24T03:27:28.173Z,7.80
2022-11-24T03:29:55.219Z,7.80
2022-11-24T03:32:22.333Z,7.80
2022-11-24T03:34:49.345Z,7.80
2022-11-24T03:37:16.241Z,7.80
2022-11-24T03:39:43.165Z,7.80
2022-11-24T03:42:10.056Z,7.80
2022-11-24T03:44:37.034Z,7.90
2022-11-24T03:47:03.986Z,7.90
2022-11-24T03:49:31.007Z,7.90
2022-11-24T03:51:58.205Z,7.90
2022-11-24T03:54:25.083Z,7.90
2022-11-24T03:56:52.029Z,7.90
2022-11-24T03:59:19.348Z,7.90
2022-11-24T04:01:46.491Z,7.90
2022-11-24T04:04:13.966Z,7.80
2022-11-24T04:06:41.216Z,7.80
2022-11-24T04:09:08.122Z,7.80
2022-11-24T04:11:53.284Z,7.70
2022-11-24T04:14:21.087Z,7.60
2022-11-24T04:16:48.150Z,7.70
2022-11-24T04:19:15.063Z,7.70
2022-11-24T04:21:41.928Z,7.60
2022-11-24T04:24:08.936Z,7.60
2022-11-24T04:26:35.911Z,7.60
2022-11-24T04:29:03.240Z,7.60
2022-11-24T04:31:30.182Z,7.50
2022-11-24T04:33:57.227Z,7.50
2022-11-24T04:36:24.116Z,7.50
2022-11-24T04:39:24.750Z,7.50
2022-11-24T04:41:40.754Z,7.50
2022-11-24T04:44:07.607Z,7.50
2022-11-24T04:46:34.560Z,7.50
2022-11-24T04:49:01.794Z,7.50
2022-11-24T04:51:28.684Z,7.40
2022-11-24T04:53:55.560Z,7.40
2022-11-24T04:56:22.518Z,7.40
2022-11-24T04:58:49.723Z,7.50
2022-11-24T05:01:16.679Z,7.40
2022-11-24T05:03:43.553Z,7.50
2022-11-24T05:06:10.465Z,7.50
2022-11-24T05:08:37.412Z,7.50
2022-11-24T05:11:06.580Z,7.40
2022-11-24T05:13:33.691Z,7.40
2022-11-24T05:16:01.735Z,7.40
2022-11-24T05:18:29.008Z,7.40
2022-11-24T05:20:57.424Z,7.40
2022-11-24T05:23:24.721Z,7.30
2022-11-24T05:25:51.921Z,7.30
2022-11-24T05:28:19.441Z,7.30
2022-11-24T05:30:46.433Z,7.30
2022-11-24T05:33:20.218Z,7.30
2022-11-24T05:35:49.068Z,7.30
2022-11-24T05:38:17.386Z,7.30
2022-11-24T05:40:44.845Z,7.30
2022-11-24T05:43:16.559Z,7.30
2022-11-24T05:45:44.273Z,7.30
2022-11-24T05:48:14.293Z,7.30
2022-11-24T05:50:41.262Z,7.30
2022-11-24T05:53:11.417Z,7.30
2022-11-24T05:55:39.877Z,7.30
2022-11-24T05:58:08.913Z,7.30
2022-11-24T06:00:36.602Z,7.20
2022-11-24T06:03:04.073Z,7.20
2022-11-24T06:05:31.629Z,7.30
2022-11-24T06:07:59.615Z,7.20
2022-11-24T06:10:27.221Z,7.30
2022-11-24T06:12:54.831Z,7.20
2022-11-24T06:15:21.833Z,7.20
2022-11-24T06:17:56.067Z,7.20
2022-11-24T06:20:27.031Z,7.20
2022-11-24T06:23:00.543Z,7.30
2022-11-24T06:25:28.579Z,7.30
2022-11-24T06:27:55.710Z,7.20
2022-11-24T06:30:22.715Z,7.20
2022-11-24T06:32:50.200Z,7.20
2022-11-24T06:35:17.581Z,7.20
2022-11-24T06:37:45.794Z,7.20
2022-11-24T06:40:13.228Z,7.20
2022-11-24T06:42:40.138Z,7.30
2022-11-24T06:45:09.634Z,7.30
2022-11-24T06:47:37.379Z,7.30
2022-11-24T06:50:04.968Z,7.30
2022-11-24T06:52:32.032Z,7.30
2022-11-24T06:54:58.889Z,7.30
2022-11-24T06:57:26.967Z,7.30
2022-11-24T06:59:53.841Z,7.30
2022-11-24T07:02:20.838Z,7.30
2022-11-24T07:04:47.675Z,7.40
2022-11-24T07:07:14.675Z,7.30
2022-11-24T07:09:41.782Z,7.30
2022-11-24T07:12:08.887Z,7.30
2022-11-24T07:14:36.931Z,7.30
2022-11-24T07:17:04.980Z,7.30
2022-11-24T07:19:32.101Z,7.30
2022-11-24T07:21:59.388Z,7.30
2022-11-24T07:24:26.221Z,7.30
2022-11-24T07:26:53.375Z,7.30
2022-11-24T07:29:20.302Z,7.30
2022-11-24T07:31:47.515Z,7.20
2022-11-24T07:34:14.988Z,7.20
2022-11-24T07:36:42.882Z,7.30
2022-11-24T07:39:09.933Z,7.20
2022-11-24T07:41:36.899Z,7.20
2022-11-24T07:44:04.121Z,7.20
2022-11-24T07:46:30.997Z,7.20
2022-11-24T07:48:58.122Z,7.20
2022-11-24T07:51:25.069Z,7.20
2022-11-24T07:53:52.011Z,7.20
2022-11-24T07:56:18.911Z,7.30
2022-11-24T07:58:51.231Z,7.30
2022-11-24T08:01:20.274Z,7.30
2022-11-24T08:03:47.937Z,7.40
2022-11-24T08:06:26.197Z,7.40
2022-11-24T08:08:56.227Z,7.50
2022-11-24T08:11:23.723Z,7.50
2022-11-24T08:13:50.791Z,7.60
2022-11-24T08:16:19.901Z,7.60
2022-11-24T08:18:51.850Z,7.70
2022-11-24T08:21:19.512Z,7.70
2022-11-24T08:23:46.835Z,7.80
2022-11-24T08:26:18.201Z,7.80
2022-11-24T08:28:46.837Z,7.90
2022-11-24T08:31:16.378Z,7.90
2022-11-24T08:33:43.577Z,8.10
2022-11-24T08:36:12.774Z,8.30
2022-11-24T08:38:39.855Z,8.60
2022-11-24T08:41:09.790Z,8.90
2022-11-24T08:43:36.981Z,9.40
2022-11-24T08:46:06.547Z,9.60
2022-11-24T08:48:34.745Z,9.70
2022-11-24T08:51:09.311Z,10.10
2022-11-24T08:53:36.512Z,10.40
2022-11-24T08:56:04.475Z,10.70
2022-11-24T08:58:32.236Z,11.20
2022-11-24T09:01:09.894Z,11.70
2022-11-24T09:03:44.995Z,12.20
2022-11-24T09:06:19.247Z,12.40
2022-11-24T09:08:51.141Z,12.80
2022-11-24T09:11:18.687Z,13.10
2022-11-24T09:13:46.113Z,13.40
2022-11-24T09:16:20.194Z,13.70
2022-11-24T09:18:48.175Z,14.00
2022-11-24T09:21:19.922Z,14.10
2022-11-24T09:23:51.489Z,13.70
2022-11-24T09:26:29.515Z,12.90
2022-11-24T09:28:57.882Z,12.00
2022-11-24T09:31:30.004Z,11.50
2022-11-24T09:33:59.554Z,11.30
2022-11-24T09:36:27.207Z,11.30
2022-11-24T09:38:56.104Z,11.60
2022-11-24T09:41:50.177Z,12.10
2022-11-24T09:44:54.153Z,12.70
2022-11-24T09:47:37.575Z,13.30
2022-11-24T09:50:18.798Z,13.80
2022-11-24T09:53:03.851Z,14.20
2022-11-24T09:55:49.336Z,14.50
2022-11-24T09:59:02.927Z,14.70
2022-11-24T10:01:35.675Z,14.90
2022-11-24T10:04:06.669Z,15.20
2022-11-24T10:06:48.221Z,15.40
2022-11-24T10:09:52.012Z,15.60
2022-11-24T10:12:38.392Z,15.60
2022-11-24T10:15:28.390Z,16.00
2022-11-24T10:18:20.721Z,16.30
2022-11-24T10:20:59.802Z,16.20
2022-11-24T10:23:50.817Z,16.10
2022-11-24T10:26:34.308Z,16.30
2022-11-24T10:29:10.574Z,16.60
2022-11-24T10:31:41.812Z,16.60
2022-11-24T10:34:18.793Z,16.80
2022-11-24T10:36:57.928Z,16.90
2022-11-24T10:40:00.093Z,17.10
2022-11-24T10:42:29.279Z,17.20
2022-11-24T10:45:15.813Z,17.00
2022-11-24T10:47:43.788Z,16.80
2022-11-24T10:50:28.832Z,16.00
2022-11-24T10:52:56.508Z,15.20
2022-11-24T10:55:23.578Z,14.50
2022-11-24T10:57:50.462Z,13.90
2022-11-24T11:00:20.487Z,13.30
2022-11-24T11:03:09.878Z,12.80
2022-11-24T11:05:42.394Z,12.60
2022-11-24T11:08:45.140Z,13.50
2022-11-24T11:11:30.350Z,14.90
2022-11-24T11:14:05.777Z,16.10
2022-11-24T11:16:32.605Z,16.60
2022-11-24T11:19:01.568Z,17.20
2022-11-24T11:21:37.547Z,17.70
2022-11-24T11:24:17.300Z,18.40
2022-11-24T11:26:44.918Z,18.60
2022-11-24T11:35:12.599Z,19.10
2022-11-24T11:37:39.679Z,19.10
2022-11-24T11:40:20.976Z,19.10
2022-11-24T11:43:07.779Z,19.10
2022-11-24T11:45:43.368Z,19.30
2022-11-24T11:48:46.496Z,19.50
2022-11-24T11:51:44.827Z,19.90
2022-11-24T11:54:21.085Z,20.10
2022-11-24T11:56:56.340Z,20.10
2022-11-24T11:59:46.091Z,20.00
2022-11-24T12:02:18.984Z,20.30
2022-11-24T12:05:10.287Z,20.30
2022-11-24T12:08:09.589Z,20.30
2022-11-24T12:10:44.128Z,20.40
2022-11-24T12:13:41.084Z,20.60
2022-11-24T12:16:22.981Z,20.70
2022-11-24T12:19:12.115Z,20.70
2022-11-24T12:21:54.316Z,21.00
2022-11-24T12:24:54.405Z,21.00
2022-11-24T12:27:23.321Z,20.90
2022-11-24T12:30:13.011Z,21.10
2022-11-24T12:32:52.160Z,21.30
2022-11-24T12:35:48.058Z,21.10
2022-11-24T12:38:40.728Z,21.30
2022-11-24T12:44:10.344Z,21.70
2022-11-24T12:46:45.681Z,21.60
2022-11-24T12:49:18.838Z,21.80
2022-11-24T12:51:53.245Z,21.80
2022-11-24T12:54:21.656Z,22.00
2022-11-24T12:56:48.521Z,22.00
2022-11-24T12:59:39.832Z,21.60
2022-11-24T13:02:21.801Z,21.20
2022-11-24T13:05:09.115Z,21.30
2022-11-24T13:08:01.611Z,20.90
2022-11-24T13:10:55.815Z,20.70
2022-11-24T13:13:28.424Z,21.00
2022-11-24T13:18:57.378Z,21.00
2022-11-24T13:21:54.460Z,20.60
2022-11-24T13:24:25.583Z,20.40
2022-11-24T13:27:14.018Z,20.20
2022-11-24T13:29:46.081Z,20.50
2022-11-24T13:32:13.081Z,20.20
2022-11-24T13:34:43.023Z,20.00
2022-11-24T13:37:34.487Z,19.80
2022-11-24T13:40:23.027Z,19.10
2022-11-24T13:42:56.423Z,18.10
2022-11-24T13:45:41.872Z,18.00
2022-11-24T13:48:21.858Z,18.00
2022-11-24T13:50:53.342Z,18.00
2022-11-24T13:53:35.443Z,17.90
2022-11-24T13:56:08.519Z,17.50
2022-11-24T13:58:40.686Z,16.90
2022-11-24T14:01:15.432Z,16.10
2022-11-24T14:04:28.031Z,15.40
2022-11-24T14:06:47.918Z,14.80
2022-11-24T14:09:23.739Z,14.50
2022-11-24T14:12:21.699Z,14.20
2022-11-24T14:14:51.351Z,13.90
2022-11-24T14:17:19.988Z,13.60
2022-11-24T14:19:49.426Z,13.40
2022-11-24T14:22:39.502Z,13.30
2022-11-24T14:25:19.555Z,13.10
2022-11-24T14:27:46.522Z,13.00
2022-11-24T14:30:13.713Z,12.80
2022-11-24T14:32:42.199Z,12.70
2022-11-24T14:35:28.736Z,12.70
2022-11-24T14:37:56.000Z,12.50
2022-11-24T14:40:55.918Z,12.40
2022-11-24T14:43:29.800Z,12.30
2022-11-24T14:46:08.137Z,12.30
2022-11-24T14:48:57.662Z,12.20
2022-11-24T14:51:33.831Z,12.10
2022-11-24T14:54:04.207Z,12.00
2022-11-24T14:56:39.094Z,11.90
2022-11-24T14:59:22.413Z,11.90
2022-11-24T15:01:49.754Z,11.80
2022-11-24T15:05:02.770Z,11.70
2022-11-24T15:07:30.505Z,11.60
2022-11-24T15:09:59.873Z,11.50
2022-11-24T15:12:31.209Z,11.40
2022-11-24T15:15:11.983Z,11.40
2022-11-24T15:17:49.920Z,11.30
2022-11-24T15:20:26.285Z,11.30
2022-11-24T15:23:22.709Z,11.10
2022-11-24T15:25:57.207Z,11.10
2022-11-24T15:28:26.084Z,11.00
2022-11-24T15:30:59.317Z,11.00
2022-11-24T15:33:26.589Z,10.90
2022-11-24T15:35:54.240Z,10.80
2022-11-24T15:38:22.241Z,10.80
2022-11-24T15:40:52.033Z,10.80
2022-11-24T15:43:32.717Z,10.80
2022-11-24T15:46:00.970Z,10.70
2022-11-24T15:48:28.787Z,10.70
2022-11-24T15:50:57.500Z,10.60
2022-11-24T15:53:32.818Z,10.60
2022-11-24T15:56:01.637Z,10.50
2022-11-24T15:58:28.686Z,10.40
2022-11-24T16:00:55.762Z,10.40
2022-11-24T16:06:20.572Z,10.30
2022-11-24T16:08:51.169Z,10.30
2022-11-24T16:11:18.117Z,10.30
2022-11-24T16:13:50.332Z,10.20
2022-11-24T16:16:19.221Z,10.20
2022-11-24T16:18:46.410Z,10.10
2022-11-24T16:21:13.354Z,10.10
2022-11-24T16:23:40.325Z,10.10
2022-11-24T16:26:07.705Z,10.00
2022-11-24T16:28:35.191Z,10.00
2022-11-24T16:31:02.248Z,10.00
2022-11-24T16:33:30.327Z,10.00
2022-11-24T16:35:57.935Z,9.90
2022-11-24T16:38:25.047Z,9.90
2022-11-24T16:40:54.018Z,9.80
2022-11-24T16:43:21.463Z,9.70
2022-11-24T16:46:16.211Z,9.70
2022-11-24T16:48:44.372Z,9.70
2022-11-24T16:51:12.385Z,9.70
2022-11-24T16:53:39.490Z,9.60
2022-11-24T16:56:07.008Z,9.50
2022-11-24T16:58:36.717Z,9.50
2022-11-24T17:01:12.822Z,9.40
2022-11-24T17:03:40.253Z,9.40
2022-11-24T17:06:12.334Z,9.30
2022-11-24T17:08:40.629Z,9.30
2022-11-24T17:11:22.180Z,9.20
2022-11-24T17:13:49.703Z,9.20
2022-11-24T17:16:19.824Z,9.20
2022-11-24T17:18:47.380Z,9.10
2022-11-24T17:21:25.797Z,9.10
2022-11-24T17:24:00.851Z,9.00
2022-11-24T17:26:28.020Z,9.00
2022-11-24T17:28:56.056Z,8.90
2022-11-24T17:31:40.489Z,8.90
2022-11-24T17:34:08.290Z,8.90
2022-11-24T17:36:35.614Z,8.80
2022-11-24T17:39:09.516Z,8.80
2022-11-24T17:41:36.637Z,8.80
2022-11-24T17:44:04.059Z,8.80
2022-11-24T17:46:31.642Z,8.80
2022-11-24T17:49:03.657Z,8.70
2022-11-24T17:51:30.665Z,8.70
2022-11-24T17:53:57.862Z,8.70
2022-11-24T17:56:27.162Z,8.70
2022-11-24T17:58:59.494Z,8.70
2022-11-24T18:01:28.735Z,8.70
2022-11-24T18:03:55.809Z,8.70
2022-11-24T18:06:27.917Z,8.70
2022-11-24T18:08:57.103Z,8.70
2022-11-24T18:11:30.928Z,8.70
2022-11-24T18:14:02.326Z,8.60
2022-11-24T18:16:34.273Z,8.60
2022-11-24T18:19:11.345Z,8.60
2022-11-24T18:21:40.519Z,8.60
2022-11-24T18:24:09.338Z,8.60
2022-11-24T18:26:36.607Z,8.60
2022-11-24T18:29:04.454Z,8.60
2022-11-24T18:31:35.886Z,8.60
2022-11-24T18:34:04.529Z,8.60
2022-11-24T18:36:32.649Z,8.60
2022-11-24T18:39:04.630Z,8.60
2022-11-24T18:41:31.911Z,8.60
2022-11-24T18:44:02.515Z,8.60
2022-11-24T18:46:29.491Z,8.60
2022-11-24T18:48:56.429Z,8.60
2022-11-24T18:51:23.606Z,8.50
2022-11-24T18:53:58.119Z,8.50
2022-11-24T18:56:25.805Z,8.50
2022-11-24T18:58:56.934Z,8.50
2022-11-24T19:01:26.999Z,8.40
2022-11-24T19:03:56.244Z,8.40
2022-11-24T19:06:33.175Z,8.40
2022-11-24T19:09:11.028Z,8.40
2022-11-24T19:11:39.654Z,8.30
2022-11-24T19:14:08.437Z,8.30
2022-11-24T19:16:35.860Z,8.30
2022-11-24T19:19:03.905Z,8.30
2022-11-24T19:21:32.836Z,8.20
2022-11-24T19:24:04.839Z,8.20
2022-11-24T19:26:33.079Z,8.20
2022-11-24T19:28:59.933Z,8.20
2022-11-24T19:31:26.893Z,8.20
2022-11-24T19:33:54.752Z,8.10
2022-11-24T19:36:23.996Z,8.10
2022-11-24T19:38:53.092Z,8.10
2022-11-24T19:41:23.107Z,8.10
2022-11-24T19:43:53.119Z,8.10
2022-11-24T19:46:21.338Z,8.10
2022-11-24T19:48:50.893Z,8.10
2022-11-24T19:51:23.380Z,8.10
2022-11-24T19:53:50.321Z,8.10
2022-11-24T19:56:20.130Z,8.10
2022-11-24T19:58:48.063Z,8.00
2022-11-24T20:01:17.240Z,8.00
2022-11-24T20:03:45.883Z,8.00
2022-11-24T20:06:14.094Z,8.00
2022-11-24T20:08:42.200Z,8.00
2022-11-24T20:11:11.752Z,8.00
2022-11-24T20:13:40.515Z,8.00
2022-11-24T20:16:15.919Z,8.00
2022-11-24T20:18:45.402Z,8.00
2022-11-24T20:21:16.535Z,8.10
2022-11-24T20:23:44.932Z,8.10
2022-11-24T20:26:15.752Z,8.10
2022-11-24T20:28:43.115Z,8.10
2022-11-24T20:31:16.076Z,8.10
2022-11-24T20:33:43.326Z,8.20
2022-11-24T20:36:18.241Z,8.20
2022-11-24T20:38:46.562Z,8.20
2022-11-24T20:41:17.893Z,8.20
2022-11-24T20:43:45.669Z,8.20
2022-11-24T20:46:21.938Z,8.20
2022-11-24T20:48:49.724Z,8.20
2022-11-24T20:51:25.031Z,8.20
2022-11-24T20:53:54.909Z,8.20
2022-11-24T20:56:24.975Z,8.20
2022-11-24T20:58:52.287Z,8.20
2022-11-24T21:01:29.034Z,8.20
2022-11-24T21:04:00.146Z,8.20
2022-11-24T21:06:31.602Z,8.20
2022-11-24T21:09:03.530Z,8.20
2022-11-24T21:11:31.353Z,8.20
2022-11-24T21:13:58.981Z,8.20
2022-11-24T21:16:31.552Z,8.20
2022-11-24T21:19:01.090Z,8.20
2022-11-24T21:21:36.183Z,8.20
2022-11-24T21:24:06.289Z,8.10
2022-11-24T21:26:37.505Z,8.10
2022-11-24T21:29:05.966Z,8.10
2022-11-24T21:31:37.040Z,8.10
2022-11-24T21:34:05.444Z,8.10
2022-11-24T21:36:34.950Z,8.10
2022-11-24T21:39:03.070Z,8.10
2022-11-24T21:41:32.852Z,8.10
2022-11-24T21:43:59.844Z,8.10
2022-11-24T21:46:29.536Z,8.10
2022-11-24T21:48:56.547Z,8.10
2022-11-24T21:51:23.505Z,8.10
2022-11-24T21:53:50.472Z,8.10
2022-11-24T21:56:22.281Z,8.10
2022-11-24T21:58:51.709Z,8.20
2022-11-24T22:01:20.753Z,8.10
2022-11-24T22:03:48.145Z,8.10
2022-11-24T22:06:17.744Z,8.10
2022-11-24T22:08:45.324Z,8.10
2022-11-24T22:11:13.830Z,8.10
2022-11-24T22:13:42.895Z,8.10
2022-11-24T22:16:13.104Z,8.10
2022-11-24T22:18:43.138Z,8.10
2022-11-24T22:21:13.156Z,8.10
2022-11-24T22:23:40.118Z,8.10
2022-11-24T22:26:18.296Z,8.10
2022-11-24T22:28:46.009Z,8.10
2022-11-24T22:31:15.992Z,8.10
2022-11-24T22:33:46.160Z,8.10
2022-11-24T22:36:14.888Z,8.10
2022-11-24T22:38:42.459Z,8.10
2022-11-24T22:41:12.478Z,8.10
2022-11-24T22:43:40.958Z,8.20
2022-11-24T22:46:13.630Z,8.20
2022-11-24T22:48:41.306Z,8.20
2022-11-24T22:51:15.077Z,8.30
2022-11-24T22:53:42.757Z,8.30
2022-11-24T22:56:11.139Z,8.40
2022-11-24T22:58:39.382Z,8.40
2022-11-24T23:01:11.478Z,8.50
2022-11-24T23:03:38.960Z,8.50
2022-11-24T23:06:08.472Z,8.60
2022-11-24T23:08:36.141Z,8.60
2022-11-24T23:11:09.263Z,8.60
2022-11-24T23:13:36.867Z,8.70
2022-11-24T23:16:22.607Z,8.70
2022-11-24T23:18:53.700Z,8.70
2022-11-24T23:21:27.007Z,8.70
2022-11-24T23:23:54.911Z,8.60
2022-11-24T23:26:23.093Z,8.60
2022-11-24T23:28:50.445Z,8.60
2022-11-24T23:31:20.366Z,8.50
2022-11-24T23:33:47.766Z,8.50
2022-11-24T23:36:19.929Z,8.50
2022-11-24T23:38:47.800Z,8.40
2022-11-24T23:41:20.384Z,8.30
2022-11-24T23:43:47.450Z,8.40
2022-11-24T23:46:23.187Z,8.30
2022-11-24T23:48:51.598Z,8.30
2022-11-24T23:51:23.824Z,8.30
2022-11-24T23:53:51.471Z,8.30
2022-11-24T23:56:20.804Z,8.30
2022-11-24T23:58:48.131Z,8.30
